Stena Europe — VSTA3 — position and weather

sailwx.info

Track history (hours):
 
Tides and Currents Weather Stations Pressure Air Temp Water Temp Dewpoint Dewpoint Depression Visibility Wind Speed Wind Dir Waves Ship Positions

Stena Europe

Operator: Stena Line

Last reported at 2017-Mar-30 21:33 UTC. Time now 2017-Mar-30 22:51 UTC.
Position N 52°09' W 005°39'.

Length 149 m; draft 6 m.

Type: Passenger vessel. MMSI: 235004539.

Date/timePositionNaut miles runAvg speedWind from/ knotsBaromVisibWave heightAir tempDewpointWater temp
2017-Mar-30 21:33N 52°09' W 005°39'1717.5
2017-Mar-30 20:33N 52°13' W 006°06'9 8.8
2017-Mar-30 19:33N 52°15' W 006°20'0 0.0
2017-Mar-30 18:33N 52°15' W 006°20'0 0.0
2017-Mar-30 17:33N 52°15' W 006°20'2 2.5
2017-Mar-30 16:33N 52°15' W 006°16'1716.6
2017-Mar-30 15:33N 52°10' W 005°50'7 1.1
2017-Mar-30 09:32N 52°09' W 005°39'1717.1
2017-Mar-30 08:33N 52°13' W 006°06'9 9.2
2017-Mar-30 07:33N 52°15' W 006°20'0 0.0
2017-Mar-30 06:33N 52°15' W 006°20'0 0.0
2017-Mar-30 05:33N 52°15' W 006°20'10 9.8
2017-Mar-30 04:33N 52°14' W 006°04'1312.9
2017-Mar-30 03:33N 52°11' W 005°44'2 0.4
2017-Mar-29 21:32N 52°09' W 005°41'1717.4
2017-Mar-29 20:33N 52°13' W 006°08'8 7.5
2017-Mar-29 19:33N 52°15' W 006°20'0 0.0
2017-Mar-29 18:33N 52°15' W 006°20'0 0.0
2017-Mar-29 17:34N 52°15' W 006°20'0 0.2
2017-Mar-29 16:33N 52°15' W 006°20'1615.6
2017-Mar-29 15:33N 52°11' W 005°56'9 1.6
2017-Mar-29 09:29N 52°09' W 005°41'1415.5
2017-Mar-29 08:33N 52°12' W 006°04'1110.5
2017-Mar-29 07:33N 52°15' W 006°20'0 0.0
2017-Mar-29 06:34N 52°15' W 006°20'0 0.0
2017-Mar-29 05:34N 52°15' W 006°20'9 9.1
2017-Mar-29 04:34N 52°14' W 006°06'1514.9
2017-Mar-29 03:34N 52°10' W 005°42'1 0.2
2017-Mar-28 21:33N 52°10' W 005°44'1818.1
2017-Mar-28 20:33N 52°14' W 006°13'5 4.8
2017-Mar-28 19:33N 52°15' W 006°20'0 0.0
2017-Mar-28 18:33N 52°15' W 006°20'0 0.0
2017-Mar-28 17:33N 52°15' W 006°20'4 4.2
2017-Mar-28 16:33N 52°14' W 006°14'1716.9
2017-Mar-28 15:33N 52°10' W 005°47'2 0.3
2017-Mar-28 09:27N 52°09' W 005°44'1415.8
2017-Mar-28 08:33N 52°13' W 006°06'9 8.8
2017-Mar-28 07:33N 52°15' W 006°20'0 0.0
2017-Mar-28 06:33N 52°15' W 006°20'0 0.0
2017-Mar-28 05:33N 52°15' W 006°20'10 9.6
2017-Mar-28 04:34N 52°13' W 006°05'1515.4
2017-Mar-28 03:34N 52°10' W 005°40'4 0.6
2017-Mar-27 21:26N 52°11' W 005°46'1618.8
2017-Mar-27 20:34N 52°14' W 006°12'5 4.9
2017-Mar-27 19:33N 52°15' W 006°20'0 0.0
2017-Mar-27 18:33N 52°15' W 006°20'0 0.0
2017-Mar-27 17:33N 52°15' W 006°20'5 4.8
2017-Mar-27 16:33N 52°14' W 006°13'1717.0
2017-Mar-27 15:33N 52°10' W 005°46'1615.8
2017-Mar-27 14:33N 52°06' W 005°21'19 3.5
2017-Mar-27 09:06N 52°10' W 005°51'916.0
2017-Mar-27 08:33N 52°13' W 006°04'1010.0
2017-Mar-27 07:33N 52°15' W 006°20'0 0.0
2017-Mar-27 06:33N 52°15' W 006°20'0 0.0
2017-Mar-27 05:33N 52°15' W 006°20'9 9.2
2017-Mar-27 04:33N 52°13' W 006°06'1414.1
2017-Mar-27 03:33N 52°11' W 005°43'4 0.6
2017-Mar-26 21:06N 52°11' W 005°50'916.8
2017-Mar-26 20:33N 52°13' W 006°04'1010.0
2017-Mar-26 19:33N 52°15' W 006°20'0 0.0
2017-Mar-26 18:33N 52°15' W 006°20'0 0.0
2017-Mar-26 17:33N 52°15' W 006°20'4 3.9
2017-Mar-26 16:33N 52°14' W 006°14'1716.7
2017-Mar-26 15:34N 52°10' W 005°48'1614.9
2017-Mar-26 14:30N 52°06' W 005°23'14 2.8
2017-Mar-26 09:23N 52°09' W 005°45'1517.9
2017-Mar-26 08:33N 52°13' W 006°09'7 7.5
2017-Mar-26 07:33N 52°15' W 006°20'0 0.0
2017-Mar-26 06:33N 52°15' W 006°20'0 0.0
2017-Mar-26 05:34N 52°15' W 006°20'1111.4
2017-Mar-26 04:33N 52°13' W 006°02'1918.8
2017-Mar-26 03:33N 52°09' W 005°32'5 1.2
2017-Mar-25 23:07N 52°04' W 005°28'1017.4
2017-Mar-25 22:33N 52°05' W 005°44'1817.7
2017-Mar-25 21:33N 52°13' W 006°09'7 7.1
2017-Mar-25 20:33N 52°15' W 006°20'0 0.0
2017-Mar-25 19:33N 52°15' W 006°20'0 0.0
2017-Mar-25 18:33N 52°15' W 006°20'4 4.4
2017-Mar-25 17:34N 52°14' W 006°13'1414.0
2017-Mar-25 16:33N 52°11' W 005°51'1615.5
2017-Mar-25 15:34N 52°07' W 005°26'1817.7
2017-Mar-25 14:33N 52°02' W 004°59'1 0.6
2017-Mar-25 12:14N 52°01' W 004°58'1015.3
2017-Mar-25 11:33N 52°05' W 005°14'1413.7
2017-Mar-25 10:33N 52°07' W 005°36'1717.3
2017-Mar-25 09:33N 52°12' W 006°03'1111.2
2017-Mar-25 08:33N 52°15' W 006°20'0 0.0
2017-Mar-25 07:33N 52°15' W 006°20'0 0.0
2017-Mar-25 06:33N 52°15' W 006°20'9 9.0
2017-Mar-25 05:33N 52°13' W 006°06'1313.4
2017-Mar-25 04:34N 52°11' W 005°45'1414.0
2017-Mar-25 03:33N 52°08' W 005°22'2 0.4
2017-Mar-24 23:16N 52°06' W 005°21'1216.3
2017-Mar-24 22:33N 52°09' W 005°39'1616.5
2017-Mar-24 21:33N 52°13' W 006°05'9 9.4
2017-Mar-24 20:34N 52°15' W 006°20'0 0.0
2017-Mar-24 19:34N 52°15' W 006°20'0 0.0
2017-Mar-24 18:34N 52°15' W 006°20'5 4.6
2017-Mar-24 17:33N 52°14' W 006°13'1616.0
2017-Mar-24 16:33N 52°10' W 005°47'1 0.1
2017-Mar-24 10:17N 52°10' W 005°46'1217.1
2017-Mar-24 09:33N 52°13' W 006°06'9 9.3
2017-Mar-24 08:33N 52°15' W 006°20'0 0.0
2017-Mar-24 07:33N 52°15' W 006°20'0 0.1
2017-Mar-24 06:33N 52°15' W 006°20'1616.2
2017-Mar-24 05:33N 52°11' W 005°55'2 0.3
2017-Mar-23 23:33N 52°11' W 005°57'1514.5
2017-Mar-23 22:33N 52°15' W 006°20'0 0.0
2017-Mar-23 21:33N 52°15' W 006°20'8 8.4
2017-Mar-23 20:34N 52°20' W 006°09'2 2.5
2017-Mar-23 19:33N 52°17' W 006°10'7 6.6
2017-Mar-23 18:33N 52°15' W 006°20'4 4.4
2017-Mar-23 17:33N 52°14' W 006°13'1716.6
2017-Mar-23 16:33N 52°10' W 005°47'12 1.7
2017-Mar-23 09:33N 52°13' W 006°06'9 9.1
2017-Mar-23 08:33N 52°15' W 006°20'0 0.0
2017-Mar-23 07:33N 52°15' W 006°20'1 1.0
2017-Mar-23 06:33N 52°16' W 006°19'9 9.1
2017-Mar-23 05:34N 52°13' W 006°05'13 1.8
2017-Mar-22 22:31N 52°10' W 005°45'1516.0
2017-Mar-22 21:33N 52°13' W 006°09'7 7.0
2017-Mar-22 20:33N 52°15' W 006°20'0 0.0
2017-Mar-22 19:33N 52°15' W 006°20'0 0.0
2017-Mar-22 18:33N 52°15' W 006°20'4 4.5
2017-Mar-22 17:33N 52°14' W 006°13'1716.7
2017-Mar-22 16:33N 52°10' W 005°47'11 1.6
2017-Mar-22 09:33N 52°13' W 006°04'1010.3
2017-Mar-22 08:33N 52°15' W 006°20'0 0.0
2017-Mar-22 07:33N 52°15' W 006°20'0 0.0
2017-Mar-22 06:33N 52°15' W 006°20'1010.5
2017-Mar-22 05:34N 52°13' W 006°04'4 0.5
2017-Mar-21 22:04N 52°12' W 005°58'815.9
2017-Mar-21 21:33N 52°14' W 006°11'6 6.2
2017-Mar-21 20:33N 52°15' W 006°20'0 0.0
2017-Mar-21 19:34N 52°15' W 006°20'0 0.0
2017-Mar-21 18:33N 52°15' W 006°20'3 2.9
2017-Mar-21 17:33N 52°14' W 006°16'1616.2
2017-Mar-21 16:33N 52°11' W 005°50'1 0.2
2017-Mar-21 10:15N 52°11' W 005°48'1115.7
2017-Mar-21 09:33N 52°13' W 006°06'9 9.3
2017-Mar-21 08:33N 52°15' W 006°20'0 0.0
2017-Mar-21 07:33N 52°15' W 006°20'0 0.0
2017-Mar-21 06:33N 52°15' W 006°20'1110.8
2017-Mar-21 05:33N 52°12' W 006°03'4 0.6
2017-Mar-20 22:23N 52°11' W 005°57'1517.9
2017-Mar-20 21:33N 52°16' W 006°20'  
Track history (hours):
 
Tides and Currents Weather Stations Pressure Air Temp Water Temp Dewpoint Dewpoint Depression Visibility Wind Speed Wind Dir Waves Ship Positions

Stena Europe

Operator: Stena Line

Last reported at 2017-Mar-30 21:33 UTC. Time now 2017-Mar-30 22:51 UTC.
Position N 52°09' W 005°39'.

Length 149 m; draft 6 m.

Type: Passenger vessel. MMSI: 235004539.

Date/timePositionNaut miles runAvg speedWind from/ knotsBaromVisibWave heightAir tempDewpointWater temp
2017-Mar-30 21:33N 52°09' W 005°39'1717.5
2017-Mar-30 20:33N 52°13' W 006°06'9 8.8
2017-Mar-30 19:33N 52°15' W 006°20'0 0.0
2017-Mar-30 18:33N 52°15' W 006°20'0 0.0
2017-Mar-30 17:33N 52°15' W 006°20'2 2.5
2017-Mar-30 16:33N 52°15' W 006°16'1716.6
2017-Mar-30 15:33N 52°10' W 005°50'7 1.1
2017-Mar-30 09:32N 52°09' W 005°39'1717.1
2017-Mar-30 08:33N 52°13' W 006°06'9 9.2
2017-Mar-30 07:33N 52°15' W 006°20'0 0.0
2017-Mar-30 06:33N 52°15' W 006°20'0 0.0
2017-Mar-30 05:33N 52°15' W 006°20'10 9.8
2017-Mar-30 04:33N 52°14' W 006°04'1312.9
2017-Mar-30 03:33N 52°11' W 005°44'2 0.4
2017-Mar-29 21:32N 52°09' W 005°41'1717.4
2017-Mar-29 20:33N 52°13' W 006°08'8 7.5
2017-Mar-29 19:33N 52°15' W 006°20'0 0.0
2017-Mar-29 18:33N 52°15' W 006°20'0 0.0
2017-Mar-29 17:34N 52°15' W 006°20'0 0.2
2017-Mar-29 16:33N 52°15' W 006°20'1615.6
2017-Mar-29 15:33N 52°11' W 005°56'9 1.6
2017-Mar-29 09:29N 52°09' W 005°41'1415.5
2017-Mar-29 08:33N 52°12' W 006°04'1110.5
2017-Mar-29 07:33N 52°15' W 006°20'0 0.0
2017-Mar-29 06:34N 52°15' W 006°20'0 0.0
2017-Mar-29 05:34N 52°15' W 006°20'9 9.1
2017-Mar-29 04:34N 52°14' W 006°06'1514.9
2017-Mar-29 03:34N 52°10' W 005°42'1 0.2
2017-Mar-28 21:33N 52°10' W 005°44'1818.1
2017-Mar-28 20:33N 52°14' W 006°13'5 4.8
2017-Mar-28 19:33N 52°15' W 006°20'0 0.0
2017-Mar-28 18:33N 52°15' W 006°20'0 0.0
2017-Mar-28 17:33N 52°15' W 006°20'4 4.2
2017-Mar-28 16:33N 52°14' W 006°14'1716.9
2017-Mar-28 15:33N 52°10' W 005°47'2 0.3
2017-Mar-28 09:27N 52°09' W 005°44'1415.8
2017-Mar-28 08:33N 52°13' W 006°06'9 8.8
2017-Mar-28 07:33N 52°15' W 006°20'0 0.0
2017-Mar-28 06:33N 52°15' W 006°20'0 0.0
2017-Mar-28 05:33N 52°15' W 006°20'10 9.6
2017-Mar-28 04:34N 52°13' W 006°05'1515.4
2017-Mar-28 03:34N 52°10' W 005°40'4 0.6
2017-Mar-27 21:26N 52°11' W 005°46'1618.8
2017-Mar-27 20:34N 52°14' W 006°12'5 4.9
2017-Mar-27 19:33N 52°15' W 006°20'0 0.0
2017-Mar-27 18:33N 52°15' W 006°20'0 0.0
2017-Mar-27 17:33N 52°15' W 006°20'5 4.8
2017-Mar-27 16:33N 52°14' W 006°13'1717.0
2017-Mar-27 15:33N 52°10' W 005°46'1615.8
2017-Mar-27 14:33N 52°06' W 005°21'19 3.5
2017-Mar-27 09:06N 52°10' W 005°51'916.0
2017-Mar-27 08:33N 52°13' W 006°04'1010.0
2017-Mar-27 07:33N 52°15' W 006°20'0 0.0
2017-Mar-27 06:33N 52°15' W 006°20'0 0.0
2017-Mar-27 05:33N 52°15' W 006°20'9 9.2
2017-Mar-27 04:33N 52°13' W 006°06'1414.1
2017-Mar-27 03:33N 52°11' W 005°43'4 0.6
2017-Mar-26 21:06N 52°11' W 005°50'916.8
2017-Mar-26 20:33N 52°13' W 006°04'1010.0
2017-Mar-26 19:33N 52°15' W 006°20'0 0.0
2017-Mar-26 18:33N 52°15' W 006°20'0 0.0
2017-Mar-26 17:33N 52°15' W 006°20'4 3.9
2017-Mar-26 16:33N 52°14' W 006°14'1716.7
2017-Mar-26 15:34N 52°10' W 005°48'1614.9
2017-Mar-26 14:30N 52°06' W 005°23'14 2.8
2017-Mar-26 09:23N 52°09' W 005°45'1517.9
2017-Mar-26 08:33N 52°13' W 006°09'7 7.5
2017-Mar-26 07:33N 52°15' W 006°20'0 0.0
2017-Mar-26 06:33N 52°15' W 006°20'0 0.0
2017-Mar-26 05:34N 52°15' W 006°20'1111.4
2017-Mar-26 04:33N 52°13' W 006°02'1918.8
2017-Mar-26 03:33N 52°09' W 005°32'5 1.2
2017-Mar-25 23:07N 52°04' W 005°28'1017.4
2017-Mar-25 22:33N 52°05' W 005°44'1817.7
2017-Mar-25 21:33N 52°13' W 006°09'7 7.1
2017-Mar-25 20:33N 52°15' W 006°20'0 0.0
2017-Mar-25 19:33N 52°15' W 006°20'0 0.0
2017-Mar-25 18:33N 52°15' W 006°20'4 4.4
2017-Mar-25 17:34N 52°14' W 006°13'1414.0
2017-Mar-25 16:33N 52°11' W 005°51'1615.5
2017-Mar-25 15:34N 52°07' W 005°26'1817.7
2017-Mar-25 14:33N 52°02' W 004°59'1 0.6
2017-Mar-25 12:14N 52°01' W 004°58'1015.3
2017-Mar-25 11:33N 52°05' W 005°14'1413.7
2017-Mar-25 10:33N 52°07' W 005°36'1717.3
2017-Mar-25 09:33N 52°12' W 006°03'1111.2
2017-Mar-25 08:33N 52°15' W 006°20'0 0.0
2017-Mar-25 07:33N 52°15' W 006°20'0 0.0
2017-Mar-25 06:33N 52°15' W 006°20'9 9.0
2017-Mar-25 05:33N 52°13' W 006°06'1313.4
2017-Mar-25 04:34N 52°11' W 005°45'1414.0
2017-Mar-25 03:33N 52°08' W 005°22'2 0.4
2017-Mar-24 23:16N 52°06' W 005°21'1216.3
2017-Mar-24 22:33N 52°09' W 005°39'1616.5
2017-Mar-24 21:33N 52°13' W 006°05'9 9.4
2017-Mar-24 20:34N 52°15' W 006°20'0 0.0
2017-Mar-24 19:34N 52°15' W 006°20'0 0.0
2017-Mar-24 18:34N 52°15' W 006°20'5 4.6
2017-Mar-24 17:33N 52°14' W 006°13'1616.0
2017-Mar-24 16:33N 52°10' W 005°47'1 0.1
2017-Mar-24 10:17N 52°10' W 005°46'1217.1
2017-Mar-24 09:33N 52°13' W 006°06'9 9.3
2017-Mar-24 08:33N 52°15' W 006°20'0 0.0
2017-Mar-24 07:33N 52°15' W 006°20'0 0.1
2017-Mar-24 06:33N 52°15' W 006°20'1616.2
2017-Mar-24 05:33N 52°11' W 005°55'2 0.3
2017-Mar-23 23:33N 52°11' W 005°57'1514.5
2017-Mar-23 22:33N 52°15' W 006°20'0 0.0
2017-Mar-23 21:33N 52°15' W 006°20'8 8.4
2017-Mar-23 20:34N 52°20' W 006°09'2 2.5
2017-Mar-23 19:33N 52°17' W 006°10'7 6.6
2017-Mar-23 18:33N 52°15' W 006°20'4 4.4
2017-Mar-23 17:33N 52°14' W 006°13'1716.6
2017-Mar-23 16:33N 52°10' W 005°47'12 1.7
2017-Mar-23 09:33N 52°13' W 006°06'9 9.1
2017-Mar-23 08:33N 52°15' W 006°20'0 0.0
2017-Mar-23 07:33N 52°15' W 006°20'1 1.0
2017-Mar-23 06:33N 52°16' W 006°19'9 9.1
2017-Mar-23 05:34N 52°13' W 006°05'13 1.8
2017-Mar-22 22:31N 52°10' W 005°45'1516.0
2017-Mar-22 21:33N 52°13' W 006°09'7 7.0
2017-Mar-22 20:33N 52°15' W 006°20'0 0.0
2017-Mar-22 19:33N 52°15' W 006°20'0 0.0
2017-Mar-22 18:33N 52°15' W 006°20'4 4.5
2017-Mar-22 17:33N 52°14' W 006°13'1716.7
2017-Mar-22 16:33N 52°10' W 005°47'11 1.6
2017-Mar-22 09:33N 52°13' W 006°04'1010.3
2017-Mar-22 08:33N 52°15' W 006°20'0 0.0
2017-Mar-22 07:33N 52°15' W 006°20'0 0.0
2017-Mar-22 06:33N 52°15' W 006°20'1010.5
2017-Mar-22 05:34N 52°13' W 006°04'4 0.5
2017-Mar-21 22:04N 52°12' W 005°58'815.9
2017-Mar-21 21:33N 52°14' W 006°11'6 6.2
2017-Mar-21 20:33N 52°15' W 006°20'0 0.0
2017-Mar-21 19:34N 52°15' W 006°20'0 0.0
2017-Mar-21 18:33N 52°15' W 006°20'3 2.9
2017-Mar-21 17:33N 52°14' W 006°16'1616.2
2017-Mar-21 16:33N 52°11' W 005°50'1 0.2
2017-Mar-21 10:15N 52°11' W 005°48'1115.7
2017-Mar-21 09:33N 52°13' W 006°06'9 9.3
2017-Mar-21 08:33N 52°15' W 006°20'0 0.0
2017-Mar-21 07:33N 52°15' W 006°20'0 0.0
2017-Mar-21 06:33N 52°15' W 006°20'1110.8
2017-Mar-21 05:33N 52°12' W 006°03'4 0.6
2017-Mar-20 22:23N 52°11' W 005°57'1517.9
2017-Mar-20 21:33N 52°16' W 006°20'  

Dump ship's entire track history